KAFW/AFW METAR and TAF weather

Enter ICAO airport designator
Station Type Date Time Source
KAFW METAR 2019/12/11 17:12 UTC NOAA

KAFW 111712Z 19006KT 7SM SCT008 06/02 A3055 RMK AO2 T00560022


Station Type Date Time Source
KAFW Decoded METAR 2019/12/11 17:12 UTC NOAA

FORT WORTH ALLIANCE AIRPORT, TX, United States (KAFW) 32-59N 097-19W 233M
Dec 11, 2019 - 12:12 PM EST / 2019.12.11 1712 UTC
Wind: from the S (190 degrees) at 7 MPH (6 KT):0
Visibility: 7 mile(s):0
Sky conditions: partly cloudy
Temperature: 42.1 F (5.6 C)
Dew Point: 36.0 F (2.2 C)
Relative Humidity: 78%
Pressure (altimeter): 30.55 in. Hg (1034 hPa)
ob: KAFW 111712Z 19006KT 7SM SCT008 06/02 A3055 RMK AO2 T00560022
cycle: 17

Station Type Date Time Source
KAFW TAF 2019/12/11 18:30 UTC NOAA

TAF KAFW 111727Z 1118/1218 16007KT P6SM FEW250

Example: see airport list